sensor_id;sensor_type;location;lat;lon;timestamp;pressure;altitude;pressure_sealevel;temperature;humidity
7050;BME280;22263;52.260;10.548;2023-07-13T00:01:48;100204.63;;;19.90;100.00
7050;BME280;22263;52.260;10.548;2023-07-13T00:04:23;100213.13;;;19.74;100.00
7050;BME280;22263;52.260;10.548;2023-07-13T00:06:53;100218.75;;;19.61;100.00
7050;BME280;22263;52.260;10.548;2023-07-13T00:09:23;100221.09;;;19.63;100.00
7050;BME280;22263;52.260;10.548;2023-07-13T00:11:55;100219.94;;;19.47;100.00
7050;BME280;22263;52.260;10.548;2023-07-13T00:14:27;100230.53;;;19.56;100.00
7050;BME280;22263;52.260;10.548;2023-07-13T00:17:00;100236.00;;;19.47;100.00
7050;BME280;22263;52.260;10.548;2023-07-13T00:19:30;100230.44;;;19.43;100.00
7050;BME280;22263;52.260;10.548;2023-07-13T00:22:03;100225.78;;;19.24;100.00
7050;BME280;22263;52.260;10.548;2023-07-13T00:24:34;100240.75;;;19.34;100.00
7050;BME280;22263;52.260;10.548;2023-07-13T00:27:08;100234.75;;;19.19;100.00
7050;BME280;22263;52.260;10.548;2023-07-13T00:29:38;100235.09;;;19.21;100.00
7050;BME280;22263;52.260;10.548;2023-07-13T00:32:11;100231.47;;;19.08;100.00
7050;BME280;22263;52.260;10.548;2023-07-13T00:34:41;100230.56;;;19.11;100.00
7050;BME280;22263;52.260;10.548;2023-07-13T00:37:10;100230.06;;;19.00;100.00
7050;BME280;22263;52.260;10.548;2023-07-13T00:39:40;100239.22;;;18.88;100.00
7050;BME280;22263;52.260;10.548;2023-07-13T00:42:10;100228.72;;;18.92;100.00
7050;BME280;22263;52.260;10.548;2023-07-13T00:44:40;100230.53;;;18.98;100.00
7050;BME280;22263;52.260;10.548;2023-07-13T00:47:13;100227.19;;;19.03;100.00
7050;BME280;22263;52.260;10.548;2023-07-13T00:49:42;100235.16;;;19.05;100.00
7050;BME280;22263;52.260;10.548;2023-07-13T00:52:12;100247.50;;;19.07;100.00
7050;BME280;22263;52.260;10.548;2023-07-13T00:54:45;100251.53;;;19.06;100.00
7050;BME280;22263;52.260;10.548;2023-07-13T00:57:19;100241.91;;;19.07;100.00
7050;BME280;22263;52.260;10.548;2023-07-13T00:59:52;100244.06;;;19.16;100.00
7050;BME280;22263;52.260;10.548;2023-07-13T01:02:24;100242.88;;;19.01;100.00
7050;BME280;22263;52.260;10.548;2023-07-13T01:04:56;100237.94;;;19.05;100.00
7050;BME280;22263;52.260;10.548;2023-07-13T01:07:27;100241.34;;;19.12;100.00
7050;BME280;22263;52.260;10.548;2023-07-13T01:09:56;100239.53;;;19.06;100.00
7050;BME280;22263;52.260;10.548;2023-07-13T01:12:26;100240.75;;;19.05;100.00
7050;BME280;22263;52.260;10.548;2023-07-13T01:14:58;100237.69;;;18.99;100.00
7050;BME280;22263;52.260;10.548;2023-07-13T01:17:31;100236.00;;;18.89;100.00
7050;BME280;22263;52.260;10.548;2023-07-13T01:20:03;100235.06;;;18.80;100.00
7050;BME280;22263;52.260;10.548;2023-07-13T01:22:38;100229.94;;;18.91;100.00
7050;BME280;22263;52.260;10.548;2023-07-13T01:25:08;100225.00;;;18.95;100.00
7050;BME280;22263;52.260;10.548;2023-07-13T01:27:37;100237.38;;;18.97;100.00
7050;BME280;22263;52.260;10.548;2023-07-13T01:30:10;100229.94;;;18.91;100.00
7050;BME280;22263;52.260;10.548;2023-07-13T01:32:40;100235.75;;;18.84;100.00
7050;BME280;22263;52.260;10.548;2023-07-13T01:35:08;100233.97;;;18.90;100.00
7050;BME280;22263;52.260;10.548;2023-07-13T01:37:42;100235.13;;;18.76;100.00
7050;BME280;22263;52.260;10.548;2023-07-13T01:40:12;100229.47;;;18.63;100.00
7050;BME280;22263;52.260;10.548;2023-07-13T01:42:42;100231.09;;;18.77;100.00
7050;BME280;22263;52.260;10.548;2023-07-13T01:45:12;100239.66;;;18.86;100.00
7050;BME280;22263;52.260;10.548;2023-07-13T01:47:42;100245.81;;;18.81;100.00
7050;BME280;22263;52.260;10.548;2023-07-13T01:50:12;100238.63;;;18.80;100.00
7050;BME280;22263;52.260;10.548;2023-07-13T01:52:44;100235.06;;;18.63;100.00
7050;BME280;22263;52.260;10.548;2023-07-13T01:55:14;100238.41;;;18.58;100.00
7050;BME280;22263;52.260;10.548;2023-07-13T01:57:44;100238.84;;;18.57;100.00
7050;BME280;22263;52.260;10.548;2023-07-13T02:00:14;100241.00;;;18.49;100.00
7050;BME280;22263;52.260;10.548;2023-07-13T02:02:47;100251.59;;;18.25;100.00
7050;BME280;22263;52.260;10.548;2023-07-13T02:05:17;100242.59;;;18.34;100.00
7050;BME280;22263;52.260;10.548;2023-07-13T02:07:50;100242.59;;;18.34;100.00
7050;BME280;22263;52.260;10.548;2023-07-13T02:10:20;100246.59;;;18.33;100.00
7050;BME280;22263;52.260;10.548;2023-07-13T02:12:53;100256.03;;;18.23;100.00
7050;BME280;22263;52.260;10.548;2023-07-13T02:15:22;100253.09;;;18.30;100.00
7050;BME280;22263;52.260;10.548;2023-07-13T02:17:52;100252.03;;;18.40;100.00
7050;BME280;22263;52.260;10.548;2023-07-13T02:20:23;100261.22;;;18.41;100.00
7050;BME280;22263;52.260;10.548;2023-07-13T02:22:56;100256.44;;;18.41;100.00
7050;BME280;22263;52.260;10.548;2023-07-13T02:25:26;100252.47;;;18.39;100.00
7050;BME280;22263;52.260;10.548;2023-07-13T02:27:55;100258.88;;;18.39;100.00
7050;BME280;22263;52.260;10.548;2023-07-13T02:30:27;100261.75;;;18.36;100.00
7050;BME280;22263;52.260;10.548;2023-07-13T02:32:58;100263.78;;;18.35;100.00
7050;BME280;22263;52.260;10.548;2023-07-13T02:35:27;100275.25;;;18.41;100.00
7050;BME280;22263;52.260;10.548;2023-07-13T02:38:00;100273.38;;;18.34;100.00
7050;BME280;22263;52.260;10.548;2023-07-13T02:40:30;100269.78;;;18.34;100.00
7050;BME280;22263;52.260;10.548;2023-07-13T02:43:03;100268.31;;;18.29;100.00
7050;BME280;22263;52.260;10.548;2023-07-13T02:45:33;100253.41;;;18.32;100.00
7050;BME280;22263;52.260;10.548;2023-07-13T02:48:03;100253.41;;;18.32;100.00
7050;BME280;22263;52.260;10.548;2023-07-13T02:50:33;100243.28;;;18.38;100.00
7050;BME280;22263;52.260;10.548;2023-07-13T02:53:05;100238.47;;;18.39;100.00
7050;BME280;22263;52.260;10.548;2023-07-13T02:55:35;100238.91;;;18.37;100.00
7050;BME280;22263;52.260;10.548;2023-07-13T02:58:05;100245.75;;;18.36;100.00
7050;BME280;22263;52.260;10.548;2023-07-13T03:00:38;100243.81;;;18.33;100.00
7050;BME280;22263;52.260;10.548;2023-07-13T03:03:11;100237.41;;;18.33;100.00
7050;BME280;22263;52.260;10.548;2023-07-13T03:05:43;100240.31;;;18.29;100.00
7050;BME280;22263;52.260;10.548;2023-07-13T03:08:25;100231.31;;;18.21;100.00
7050;BME280;22263;52.260;10.548;2023-07-13T03:10:59;100241.53;;;18.12;100.00
7050;BME280;22263;52.260;10.548;2023-07-13T03:13:32;100239.97;;;18.11;100.00
7050;BME280;22263;52.260;10.548;2023-07-13T03:16:04;100239.00;;;18.17;100.00
7050;BME280;22263;52.260;10.548;2023-07-13T03:18:35;100242.22;;;18.16;100.00
7050;BME280;22263;52.260;10.548;2023-07-13T03:21:08;100237.16;;;18.11;100.00
7050;BME280;22263;52.260;10.548;2023-07-13T03:23:42;100223.84;;;18.15;100.00
7050;BME280;22263;52.260;10.548;2023-07-13T03:26:16;100229.03;;;18.16;100.00
7050;BME280;22263;52.260;10.548;2023-07-13T03:28:50;100239.06;;;18.14;100.00
7050;BME280;22263;52.260;10.548;2023-07-13T03:31:26;100241.34;;;18.19;100.00
7050;BME280;22263;52.260;10.548;2023-07-13T03:33:57;100243.13;;;18.13;100.00
7050;BME280;22263;52.260;10.548;2023-07-13T03:36:29;100243.44;;;18.15;100.00
7050;BME280;22263;52.260;10.548;2023-07-13T03:39:06;100244.34;;;18.12;100.00
7050;BME280;22263;52.260;10.548;2023-07-13T03:41:46;100252.22;;;18.17;100.00
7050;BME280;22263;52.260;10.548;2023-07-13T03:44:18;100256.22;;;18.16;100.00
7050;BME280;22263;52.260;10.548;2023-07-13T03:46:53;100261.56;;;18.10;100.00
7050;BME280;22263;52.260;10.548;2023-07-13T03:49:24;100260.63;;;18.17;100.00
7050;BME280;22263;52.260;10.548;2023-07-13T03:51:54;100264.34;;;18.10;100.00
7050;BME280;22263;52.260;10.548;2023-07-13T03:54:27;100275.28;;;18.05;100.00
7050;BME280;22263;52.260;10.548;2023-07-13T03:56:58;100272.66;;;17.98;100.00
7050;BME280;22263;52.260;10.548;2023-07-13T03:59:29;100275.09;;;17.96;100.00
7050;BME280;22263;52.260;10.548;2023-07-13T04:02:00;100278.31;;;17.94;100.00
7050;BME280;22263;52.260;10.548;2023-07-13T04:04:33;100266.88;;;18.05;100.00
7050;BME280;22263;52.260;10.548;2023-07-13T04:07:05;100280.88;;;18.05;100.00
7050;BME280;22263;52.260;10.548;2023-07-13T04:09:41;100282.81;;;18.08;100.00
7050;BME280;22263;52.260;10.548;2023-07-13T04:12:11;100276.50;;;18.04;100.00
7050;BME280;22263;52.260;10.548;2023-07-13T04:14:42;100278.44;;;18.07;100.00
7050;BME280;22263;52.260;10.548;2023-07-13T04:17:12;100282.09;;;18.04;100.00
7050;BME280;22263;52.260;10.548;2023-07-13T04:19:44;100284.31;;;18.12;100.00
7050;BME280;22263;52.260;10.548;2023-07-13T04:22:15;100283.16;;;18.10;100.00
7050;BME280;22263;52.260;10.548;2023-07-13T04:24:48;100288.06;;;18.06;100.00
7050;BME280;22263;52.260;10.548;2023-07-13T04:27:18;100288.56;;;18.01;100.00
7050;BME280;22263;52.260;10.548;2023-07-13T04:29:51;100291.16;;;17.92;100.00
7050;BME280;22263;52.260;10.548;2023-07-13T04:32:23;100293.38;;;18.00;100.00
7050;BME280;22263;52.260;10.548;2023-07-13T04:34:53;100303.63;;;18.07;100.00
7050;BME280;22263;52.260;10.548;2023-07-13T04:37:24;100311.69;;;18.21;100.00
7050;BME280;22263;52.260;10.548;2023-07-13T04:39:57;100302.31;;;18.27;100.00
7050;BME280;22263;52.260;10.548;2023-07-13T04:42:27;100302.41;;;18.08;100.00
7050;BME280;22263;52.260;10.548;2023-07-13T04:44:56;100308.34;;;18.10;100.00
7050;BME280;22263;52.260;10.548;2023-07-13T04:47:26;100309.97;;;18.27;100.00
7050;BME280;22263;52.260;10.548;2023-07-13T04:49:59;100314.41;;;18.24;100.00
7050;BME280;22263;52.260;10.548;2023-07-13T04:52:29;100312.94;;;18.52;100.00
7050;BME280;22263;52.260;10.548;2023-07-13T04:55:02;100314.63;;;18.50;100.00
7050;BME280;22263;52.260;10.548;2023-07-13T04:57:32;100316.19;;;18.51;100.00
7050;BME280;22263;52.260;10.548;2023-07-13T05:00:03;100317.72;;;18.55;100.00
7050;BME280;22263;52.260;10.548;2023-07-13T05:02:34;100320.75;;;18.61;100.00
7050;BME280;22263;52.260;10.548;2023-07-13T05:05:04;100324.00;;;18.76;100.00
7050;BME280;22263;52.260;10.548;2023-07-13T05:07:34;100322.44;;;18.75;100.00
7050;BME280;22263;52.260;10.548;2023-07-13T05:10:08;100331.66;;;18.75;100.00
7050;BME280;22263;52.260;10.548;2023-07-13T05:12:38;100315.84;;;18.81;100.00
7050;BME280;22263;52.260;10.548;2023-07-13T05:15:08;100327.31;;;18.87;100.00
7050;BME280;22263;52.260;10.548;2023-07-13T05:17:38;100331.88;;;18.97;100.00
7050;BME280;22263;52.260;10.548;2023-07-13T05:20:12;100324.69;;;18.96;100.00
7050;BME280;22263;52.260;10.548;2023-07-13T05:22:42;100322.50;;;19.03;100.00
7050;BME280;22263;52.260;10.548;2023-07-13T05:25:16;100324.41;;;19.06;100.00
7050;BME280;22263;52.260;10.548;2023-07-13T05:27:46;100334.41;;;19.07;100.00
7050;BME280;22263;52.260;10.548;2023-07-13T05:30:16;100319.50;;;19.10;100.00
7050;BME280;22263;52.260;10.548;2023-07-13T05:32:46;100330.63;;;19.14;100.00
7050;BME280;22263;52.260;10.548;2023-07-13T05:35:16;100328.47;;;19.34;100.00
7050;BME280;22263;52.260;10.548;2023-07-13T05:37:46;100330.88;;;19.65;100.00
7050;BME280;22263;52.260;10.548;2023-07-13T05:40:18;100327.03;;;19.71;100.00
7050;BME280;22263;52.260;10.548;2023-07-13T05:42:48;100324.84;;;19.79;100.00
7050;BME280;22263;52.260;10.548;2023-07-13T05:45:17;100332.03;;;19.92;100.00
7050;BME280;22263;52.260;10.548;2023-07-13T05:47:49;100317.13;;;20.08;100.00
7050;BME280;22263;52.260;10.548;2023-07-13T05:50:19;100330.94;;;20.02;100.00
7050;BME280;22263;52.260;10.548;2023-07-13T05:52:48;100330.81;;;20.06;100.00
7050;BME280;22263;52.260;10.548;2023-07-13T05:55:21;100330.22;;;20.40;100.00
7050;BME280;22263;52.260;10.548;2023-07-13T05:57:51;100330.53;;;20.80;100.00
7050;BME280;22263;52.260;10.548;2023-07-13T06:00:21;100337.19;;;21.08;100.00
7050;BME280;22263;52.260;10.548;2023-07-13T06:02:51;100323.25;;;21.17;100.00
7050;BME280;22263;52.260;10.548;2023-07-13T06:05:21;100338.13;;;21.39;100.00
7050;BME280;22263;52.260;10.548;2023-07-13T06:07:51;100339.31;;;21.29;100.00
7050;BME280;22263;52.260;10.548;2023-07-13T06:10:23;100335.50;;;21.45;100.00
7050;BME280;22263;52.260;10.548;2023-07-13T06:12:53;100334.06;;;21.40;100.00
7050;BME280;22263;52.260;10.548;2023-07-13T06:15:22;100338.22;;;21.01;100.00
7050;BME280;22263;52.260;10.548;2023-07-13T06:17:52;100339.38;;;21.38;100.00
7050;BME280;22263;52.260;10.548;2023-07-13T06:20:22;100341.03;;;21.70;100.00
7050;BME280;22263;52.260;10.548;2023-07-13T06:22:52;100334.44;;;21.29;100.00
7050;BME280;22263;52.260;10.548;2023-07-13T06:25:25;100342.78;;;20.86;100.00
7050;BME280;22263;52.260;10.548;2023-07-13T06:27:55;100336.13;;;20.80;100.00
7050;BME280;22263;52.260;10.548;2023-07-13T06:30:25;100338.66;;;21.12;100.00
7050;BME280;22263;52.260;10.548;2023-07-13T06:32:55;100342.63;;;21.15;100.00
7050;BME280;22263;52.260;10.548;2023-07-13T06:35:25;100338.84;;;20.71;100.00
7050;BME280;22263;52.260;10.548;2023-07-13T06:37:55;100342.06;;;20.95;100.00
7050;BME280;22263;52.260;10.548;2023-07-13T06:40:27;100349.16;;;20.99;100.00
7050;BME280;22263;52.260;10.548;2023-07-13T06:42:58;100345.88;;;21.01;100.00
7050;BME280;22263;52.260;10.548;2023-07-13T06:45:27;100346.19;;;21.15;100.00
7050;BME280;22263;52.260;10.548;2023-07-13T06:47:57;100353.16;;;21.11;100.00
7050;BME280;22263;52.260;10.548;2023-07-13T06:50:27;100343.16;;;21.22;100.00
7050;BME280;22263;52.260;10.548;2023-07-13T06:52:57;100340.63;;;21.37;100.00
7050;BME280;22263;52.260;10.548;2023-07-13T06:55:30;100342.59;;;21.49;100.00
7050;BME280;22263;52.260;10.548;2023-07-13T06:58:00;100347.84;;;22.03;100.00
7050;BME280;22263;52.260;10.548;2023-07-13T07:00:30;100360.50;;;21.99;100.00
7050;BME280;22263;52.260;10.548;2023-07-13T07:03:00;100349.50;;;22.23;100.00
7050;BME280;22263;52.260;10.548;2023-07-13T07:05:30;100354.91;;;22.39;100.00
7050;BME280;22263;52.260;10.548;2023-07-13T07:08:00;100345.81;;;22.35;100.00
7050;BME280;22263;52.260;10.548;2023-07-13T07:10:33;100352.81;;;22.30;100.00
7050;BME280;22263;52.260;10.548;2023-07-13T07:13:03;100358.56;;;22.17;100.00
7050;BME280;22263;52.260;10.548;2023-07-13T07:15:36;100355.16;;;22.23;100.00
7050;BME280;22263;52.260;10.548;2023-07-13T07:18:06;100349.38;;;22.26;100.00
7050;BME280;22263;52.260;10.548;2023-07-13T07:20:35;100359.34;;;22.49;100.00
7050;BME280;22263;52.260;10.548;2023-07-13T07:23:05;100361.41;;;22.27;100.00
7050;BME280;22263;52.260;10.548;2023-07-13T07:25:37;100351.91;;;21.81;100.00
7050;BME280;22263;52.260;10.548;2023-07-13T07:28:09;100364.13;;;21.65;100.00
7050;BME280;22263;52.260;10.548;2023-07-13T07:30:59;100357.91;;;21.48;100.00
7050;BME280;22263;52.260;10.548;2023-07-13T07:33:32;100367.13;;;21.49;100.00
7050;BME280;22263;52.260;10.548;2023-07-13T07:36:03;100355.56;;;21.47;100.00
7050;BME280;22263;52.260;10.548;2023-07-13T07:38:38;100356.47;;;21.65;100.00
7050;BME280;22263;52.260;10.548;2023-07-13T07:41:11;100359.94;;;21.91;100.00
7050;BME280;22263;52.260;10.548;2023-07-13T07:43:43;100363.41;;;21.73;100.00
7050;BME280;22263;52.260;10.548;2023-07-13T07:46:13;100368.66;;;21.84;100.00
7050;BME280;22263;52.260;10.548;2023-07-13T07:48:43;100360.66;;;22.66;100.00
7050;BME280;22263;52.260;10.548;2023-07-13T07:51:13;100359.13;;;22.74;100.00
7050;BME280;22263;52.260;10.548;2023-07-13T07:53:42;100361.94;;;23.51;90.22
7050;BME280;22263;52.260;10.548;2023-07-13T07:56:15;100350.66;;;23.78;81.85
7050;BME280;22263;52.260;10.548;2023-07-13T07:58:48;100366.19;;;23.64;79.21
7050;BME280;22263;52.260;10.548;2023-07-13T08:01:21;100366.75;;;24.05;74.54
7050;BME280;22263;52.260;10.548;2023-07-13T08:03:54;100365.69;;;23.75;78.85
7050;BME280;22263;52.260;10.548;2023-07-13T08:06:27;100357.72;;;23.64;81.96
7050;BME280;22263;52.260;10.548;2023-07-13T08:09:11;100371.78;;;23.37;83.77
7050;BME280;22263;52.260;10.548;2023-07-13T08:11:43;100359.88;;;23.97;77.28
7050;BME280;22263;52.260;10.548;2023-07-13T08:14:16;100360.19;;;23.89;77.65
7050;BME280;22263;52.260;10.548;2023-07-13T08:16:46;100363.47;;;24.57;70.68
7050;BME280;22263;52.260;10.548;2023-07-13T08:19:16;100364.69;;;24.65;67.50
7050;BME280;22263;52.260;10.548;2023-07-13T08:21:45;100367.50;;;25.07;65.67
7050;BME280;22263;52.260;10.548;2023-07-13T08:24:15;100370.38;;;25.22;63.18
7050;BME280;22263;52.260;10.548;2023-07-13T08:26:48;100366.69;;;25.07;65.49
7050;BME280;22263;52.260;10.548;2023-07-13T08:29:18;100370.44;;;25.13;63.84
7050;BME280;22263;52.260;10.548;2023-07-13T08:31:48;100383.31;;;24.81;65.92
7050;BME280;22263;52.260;10.548;2023-07-13T08:34:18;100378.25;;;24.52;67.75
7050;BME280;22263;52.260;10.548;2023-07-13T08:36:47;100387.31;;;24.65;65.89
7050;BME280;22263;52.260;10.548;2023-07-13T08:39:17;100382.28;;;24.18;71.13
7050;BME280;22263;52.260;10.548;2023-07-13T08:41:54;100385.28;;;24.66;66.81
7050;BME280;22263;52.260;10.548;2023-07-13T08:44:34;100387.94;;;24.69;65.41
7050;BME280;22263;52.260;10.548;2023-07-13T08:47:11;100390.44;;;24.35;61.62
7050;BME280;22263;52.260;10.548;2023-07-13T08:49:42;100390.19;;;24.56;61.47
7050;BME280;22263;52.260;10.548;2023-07-13T08:52:31;100391.28;;;24.17;64.85
7050;BME280;22263;52.260;10.548;2023-07-13T08:55:06;100391.75;;;24.57;65.22
7050;BME280;22263;52.260;10.548;2023-07-13T08:57:45;100390.13;;;24.65;61.62
7050;BME280;22263;52.260;10.548;2023-07-13T09:00:17;100381.84;;;24.02;68.15
7050;BME280;22263;52.260;10.548;2023-07-13T09:02:54;100396.91;;;23.89;72.52
7050;BME280;22263;52.260;10.548;2023-07-13T09:05:28;100401.66;;;23.83;71.01
7050;BME280;22263;52.260;10.548;2023-07-13T09:08:12;100391.78;;;24.48;67.12
7050;BME280;22263;52.260;10.548;2023-07-13T09:10:47;100394.19;;;24.41;64.76
7050;BME280;22263;52.260;10.548;2023-07-13T09:13:33;100395.25;;;25.66;59.78
7050;BME280;22263;52.260;10.548;2023-07-13T09:16:07;100389.59;;;25.66;58.03
7050;BME280;22263;52.260;10.548;2023-07-13T09:18:42;100394.16;;;25.39;63.01
7050;BME280;22263;52.260;10.548;2023-07-13T09:21:17;100396.19;;;26.60;53.57
7050;BME280;22263;52.260;10.548;2023-07-13T09:23:48;100395.03;;;26.52;53.39
7050;BME280;22263;52.260;10.548;2023-07-13T09:26:24;100405.22;;;25.04;61.51
7050;BME280;22263;52.260;10.548;2023-07-13T09:29:03;100404.00;;;26.21;56.29
7050;BME280;22263;52.260;10.548;2023-07-13T09:31:42;100402.38;;;25.61;58.33
7050;BME280;22263;52.260;10.548;2023-07-13T09:34:13;100398.91;;;26.69;54.54
7050;BME280;22263;52.260;10.548;2023-07-13T09:36:43;100398.44;;;26.56;52.37
7050;BME280;22263;52.260;10.548;2023-07-13T09:39:15;100408.06;;;25.90;55.88
7050;BME280;22263;52.260;10.548;2023-07-13T09:41:49;100398.59;;;26.67;53.36
7050;BME280;22263;52.260;10.548;2023-07-13T09:44:31;100404.03;;;27.55;50.15
7050;BME280;22263;52.260;10.548;2023-07-13T09:47:12;100402.09;;;28.70;45.69
7050;BME280;22263;52.260;10.548;2023-07-13T09:49:45;100401.44;;;27.77;48.48
7050;BME280;22263;52.260;10.548;2023-07-13T09:52:16;100397.06;;;27.76;48.62
7050;BME280;22263;52.260;10.548;2023-07-13T09:54:50;100402.16;;;27.31;51.51
7050;BME280;22263;52.260;10.548;2023-07-13T09:57:27;100403.88;;;27.64;49.42
7050;BME280;22263;52.260;10.548;2023-07-13T10:00:24;100397.47;;;28.41;47.69
7050;BME280;22263;52.260;10.548;2023-07-13T10:02:59;100398.47;;;28.12;48.82
7050;BME280;22263;52.260;10.548;2023-07-13T10:05:41;100399.84;;;28.48;47.70
7050;BME280;22263;52.260;10.548;2023-07-13T10:08:22;100392.50;;;28.36;48.31
7050;BME280;22263;52.260;10.548;2023-07-13T10:10:59;100384.59;;;28.51;48.23
7050;BME280;22263;52.260;10.548;2023-07-13T10:13:33;100407.09;;;26.96;51.95
7050;BME280;22263;52.260;10.548;2023-07-13T10:16:07;100397.13;;;27.41;50.00
7050;BME280;22263;52.260;10.548;2023-07-13T10:18:43;100401.59;;;27.48;51.35
7050;BME280;22263;52.260;10.548;2023-07-13T10:21:17;100403.28;;;26.99;52.19
7050;BME280;22263;52.260;10.548;2023-07-13T10:24:06;100398.69;;;26.87;52.76
7050;BME280;22263;52.260;10.548;2023-07-13T10:26:46;100398.41;;;25.97;57.88
7050;BME280;22263;52.260;10.548;2023-07-13T10:29:18;100393.84;;;26.29;57.13
7050;BME280;22263;52.260;10.548;2023-07-13T10:31:52;100407.97;;;27.22;53.29
7050;BME280;22263;52.260;10.548;2023-07-13T10:34:24;100409.75;;;27.00;51.97
7050;BME280;22263;52.260;10.548;2023-07-13T10:36:54;100406.03;;;26.94;54.24
7050;BME280;22263;52.260;10.548;2023-07-13T10:39:27;100408.06;;;27.28;51.92
7050;BME280;22263;52.260;10.548;2023-07-13T10:42:00;100387.69;;;28.79;48.35
7050;BME280;22263;52.260;10.548;2023-07-13T10:44:33;100387.84;;;29.01;47.08
7050;BME280;22263;52.260;10.548;2023-07-13T10:47:10;100408.78;;;28.09;47.47
7050;BME280;22263;52.260;10.548;2023-07-13T10:49:42;100402.78;;;28.28;47.99
7050;BME280;22263;52.260;10.548;2023-07-13T10:52:41;100405.28;;;28.77;46.71
7050;BME280;22263;52.260;10.548;2023-07-13T10:55:35;100409.19;;;28.48;49.08
7050;BME280;22263;52.260;10.548;2023-07-13T10:58:15;100409.63;;;28.15;47.02
7050;BME280;22263;52.260;10.548;2023-07-13T11:00:50;100414.28;;;28.39;48.01
7050;BME280;22263;52.260;10.548;2023-07-13T11:03:27;100417.69;;;27.16;50.38
7050;BME280;22263;52.260;10.548;2023-07-13T11:06:09;100407.69;;;28.27;48.27
7050;BME280;22263;52.260;10.548;2023-07-13T11:08:52;100398.31;;;27.95;49.02
7050;BME280;22263;52.260;10.548;2023-07-13T11:11:34;100393.97;;;28.88;47.42
7050;BME280;22263;52.260;10.548;2023-07-13T11:14:34;100413.09;;;28.25;47.42
7050;BME280;22263;52.260;10.548;2023-07-13T11:20:24;100412.09;;;25.84;54.95
7050;BME280;22263;52.260;10.548;2023-07-13T11:23:19;100409.09;;;25.64;57.46
7050;BME280;22263;52.260;10.548;2023-07-13T11:25:49;100412.53;;;26.35;53.40
7050;BME280;22263;52.260;10.548;2023-07-13T11:28:23;100399.16;;;27.00;50.81
7050;BME280;22263;52.260;10.548;2023-07-13T11:31:10;100402.28;;;27.83;48.47
7050;BME280;22263;52.260;10.548;2023-07-13T11:33:58;100399.75;;;28.37;46.84
7050;BME280;22263;52.260;10.548;2023-07-13T11:36:37;100401.19;;;28.52;44.67
7050;BME280;22263;52.260;10.548;2023-07-13T11:39:18;100395.53;;;28.58;44.00
7050;BME280;22263;52.260;10.548;2023-07-13T11:41:53;100387.00;;;28.58;46.06
7050;BME280;22263;52.260;10.548;2023-07-13T11:44:26;100385.72;;;29.38;44.11
7050;BME280;22263;52.260;10.548;2023-07-13T11:46:58;100385.97;;;29.40;43.14
7050;BME280;22263;52.260;10.548;2023-07-13T11:49:32;100398.72;;;28.40;43.88
7050;BME280;22263;52.260;10.548;2023-07-13T11:52:15;100407.06;;;28.17;44.94
7050;BME280;22263;52.260;10.548;2023-07-13T11:54:48;100399.31;;;27.31;46.94
7050;BME280;22263;52.260;10.548;2023-07-13T11:57:25;100382.00;;;27.70;46.98
7050;BME280;22263;52.260;10.548;2023-07-13T11:59:59;100401.38;;;27.31;46.47
7050;BME280;22263;52.260;10.548;2023-07-13T12:02:36;100400.09;;;27.12;47.50
7050;BME280;22263;52.260;10.548;2023-07-13T12:05:10;100393.50;;;27.00;47.29
7050;BME280;22263;52.260;10.548;2023-07-13T12:07:44;100380.63;;;26.55;47.92
7050;BME280;22263;52.260;10.548;2023-07-13T12:10:18;100372.53;;;26.83;47.53
7050;BME280;22263;52.260;10.548;2023-07-13T12:12:47;100392.31;;;26.92;47.87
7050;BME280;22263;52.260;10.548;2023-07-13T12:15:18;100391.66;;;26.68;49.01
7050;BME280;22263;52.260;10.548;2023-07-13T12:17:49;100386.72;;;26.33;49.92
7050;BME280;22263;52.260;10.548;2023-07-13T12:20:23;100390.31;;;27.33;47.39
7050;BME280;22263;52.260;10.548;2023-07-13T12:22:56;100401.31;;;27.86;45.67
7050;BME280;22263;52.260;10.548;2023-07-13T12:25:29;100376.06;;;28.51;43.42
7050;BME280;22263;52.260;10.548;2023-07-13T12:27:59;100383.13;;;28.04;44.32
7050;BME280;22263;52.260;10.548;2023-07-13T12:30:58;100375.88;;;28.97;42.27
7050;BME280;22263;52.260;10.548;2023-07-13T12:33:29;100400.91;;;27.99;41.70
7050;BME280;22263;52.260;10.548;2023-07-13T12:36:01;100391.59;;;27.98;43.14
7050;BME280;22263;52.260;10.548;2023-07-13T12:38:32;100401.16;;;27.14;45.12
7050;BME280;22263;52.260;10.548;2023-07-13T12:41:02;100388.13;;;28.40;42.57
7050;BME280;22263;52.260;10.548;2023-07-13T12:43:35;100387.38;;;28.71;42.34
7050;BME280;22263;52.260;10.548;2023-07-13T12:46:18;100386.16;;;28.83;41.10
7050;BME280;22263;52.260;10.548;2023-07-13T12:48:51;100389.81;;;28.89;41.22
7050;BME280;22263;52.260;10.548;2023-07-13T12:51:41;100391.94;;;28.32;43.51
7050;BME280;22263;52.260;10.548;2023-07-13T12:54:19;100376.28;;;29.16;41.89
7050;BME280;22263;52.260;10.548;2023-07-13T12:56:49;100370.63;;;30.08;40.10
7050;BME280;22263;52.260;10.548;2023-07-13T12:59:21;100383.00;;;29.77;39.97
7050;BME280;22263;52.260;10.548;2023-07-13T13:01:55;100391.47;;;29.55;40.46
7050;BME280;22263;52.260;10.548;2023-07-13T13:04:25;100386.97;;;28.89;41.31
7050;BME280;22263;52.260;10.548;2023-07-13T13:07:04;100382.72;;;28.42;42.02
7050;BME280;22263;52.260;10.548;2023-07-13T13:09:36;100382.63;;;27.39;44.15
7050;BME280;22263;52.260;10.548;2023-07-13T13:12:07;100386.06;;;27.43;45.49
7050;BME280;22263;52.260;10.548;2023-07-13T13:14:42;100382.84;;;27.15;47.30
7050;BME280;22263;52.260;10.548;2023-07-13T13:17:19;100378.69;;;27.51;45.65